Terminal Aerodrome Forecast
Issued by NWS Birmingham, AL

Home | Current Version | Previous Version | Text Only | Print | Product List | Glossary On
Versions: 1 2 3 4 5 6 7 8 9 10 11 12 13 14 15 16
828
FTUS44 KBMX 142336
TAFBHM
TAF
KBHM 142336Z 1500/1524 15009KT P6SM BKN060 BKN250
     FM151200 15010KT P6SM BKN035 BKN200
     FM151500 16011G19KT P6SM VCSH BKN020 OVC035
     FM152000 16013G22KT 5SM -RA OVC012=

USA.gov is the U.S. government's official web portal to all federal, state and local government web resources and services.